Time;durP1;ratioP1;P1;durP2;ratioP2;P2;SDS_P1;SDS_P2;PMS_P1;PMS_P2;Temp;Humidity;BMP_temperature;BMP_pressure;BME280_temperature;BME280_humidity;BME280_pressure;Samples;Min_cycle;Max_cycle;Signal;HPM_P1;HPM_P2
2023/08/30 00:00:00;;;;;;;5.75;4.00;;;;;;;;;;5050857;28;20063;-59
2023/08/30 00:02:26;;;;;;;6.03;3.72;;;;;;;;;;5047919;28;20866;-59
2023/08/30 00:04:57;;;;;;;5.07;3.92;;;;;;;;;;5044378;28;20061;-59
2023/08/30 00:07:24;;;;;;;6.22;4.60;;;;;;;;;;5046301;28;20499;-59
2023/08/30 00:09:50;;;;;;;5.05;3.72;;;;;;;;;;5042101;28;20050;-56
2023/08/30 00:12:17;;;;;;;4.40;3.80;;;;;;;;;;5042729;28;20057;-58
2023/08/30 00:14:43;;;;;;;4.43;3.90;;;;;;;;;;5027919;28;20058;-58
2023/08/30 00:17:09;;;;;;;5.03;3.65;;;;;;;;;;5042373;28;20591;-56
2023/08/30 00:19:36;;;;;;;4.25;3.75;;;;;;;;;;5036651;28;20050;-59
2023/08/30 00:22:03;;;;;;;6.25;4.47;;;;;;;;;;5043986;28;20050;-59
2023/08/30 00:24:29;;;;;;;4.72;4.03;;;;;;;;;;5042694;28;20045;-58
2023/08/30 00:26:56;;;;;;;4.78;4.03;;;;;;;;;;5043806;28;20152;-58
2023/08/30 00:29:22;;;;;;;6.72;4.85;;;;;;;;;;5042473;28;20104;-57
2023/08/30 00:31:49;;;;;;;6.95;4.90;;;;;;;;;;5033084;28;20064;-59
2023/08/30 00:34:15;;;;;;;5.55;4.32;;;;;;;;;;5043572;28;20100;-55
2023/08/30 00:36:42;;;;;;;5.00;4.50;;;;;;;;;;5056070;28;20060;-59
2023/08/30 00:39:08;;;;;;;6.38;4.82;;;;;;;;;;5039079;28;20061;-59
2023/08/30 00:41:35;;;;;;;4.55;4.13;;;;;;;;;;5040831;28;20083;-57
2023/08/30 00:44:01;;;;;;;8.02;4.75;;;;;;;;;;5029239;28;20152;-57
2023/08/30 00:46:28;;;;;;;4.97;4.28;;;;;;;;;;5045412;28;20148;-58
2023/08/30 00:48:55;;;;;;;6.43;4.72;;;;;;;;;;5047066;28;20136;-58
2023/08/30 00:51:22;;;;;;;5.05;4.30;;;;;;;;;;5061305;28;20119;-58
2023/08/30 00:53:48;;;;;;;7.68;4.50;;;;;;;;;;5054563;28;20063;-57
2023/08/30 00:56:15;;;;;;;7.43;4.45;;;;;;;;;;5042642;28;20120;-59
2023/08/30 00:58:42;;;;;;;7.05;4.50;;;;;;;;;;5043749;28;20065;-58
2023/08/30 01:01:09;;;;;;;6.35;4.70;;;;;;;;;;5043142;28;20057;-57
2023/08/30 01:03:37;;;;;;;7.13;4.22;;;;;;;;;;5041874;28;20144;-57
2023/08/30 01:06:04;;;;;;;6.30;4.78;;;;;;;;;;5050361;28;20057;-54
2023/08/30 01:08:30;;;;;;;7.22;4.53;;;;;;;;;;5042464;28;20046;-57
2023/08/30 01:11:05;;;;;;;5.13;4.20;;;;;;;;;;5031123;28;20493;-56
2023/08/30 01:13:33;;;;;;;6.30;4.87;;;;;;;;;;5035373;28;20062;-58
2023/08/30 01:16:00;;;;;;;5.10;4.60;;;;;;;;;;5042483;28;20054;-57
2023/08/30 01:18:28;;;;;;;5.28;4.25;;;;;;;;;;5042570;28;20058;-57
2023/08/30 01:20:55;;;;;;;6.45;4.57;;;;;;;;;;5044138;28;20661;-57
2023/08/30 01:23:25;;;;;;;6.40;4.22;;;;;;;;;;5043699;28;20057;-59
2023/08/30 01:25:55;;;;;;;4.85;4.20;;;;;;;;;;5042474;28;20079;-57
2023/08/30 01:28:23;;;;;;;7.35;4.43;;;;;;;;;;5042232;28;20062;-56
2023/08/30 01:30:50;;;;;;;6.15;4.93;;;;;;;;;;5044667;28;20152;-56
2023/08/30 01:33:18;;;;;;;7.13;4.15;;;;;;;;;;5041391;28;20062;-59
2023/08/30 01:35:45;;;;;;;5.65;4.32;;;;;;;;;;5030977;28;20056;-59
2023/08/30 01:38:13;;;;;;;9.25;4.25;;;;;;;;;;5042614;28;20088;-59
2023/08/30 01:40:40;;;;;;;6.28;4.13;;;;;;;;;;5042035;28;20518;-58
2023/08/30 01:43:08;;;;;;;6.32;4.38;;;;;;;;;;5027432;28;20064;-57
2023/08/30 01:45:42;;;;;;;6.25;4.25;;;;;;;;;;5048138;28;20084;-58
2023/08/30 01:48:10;;;;;;;7.97;4.55;;;;;;;;;;5044928;28;20539;-56
2023/08/30 01:50:39;;;;;;;6.10;4.40;;;;;;;;;;5042648;28;20057;-58
2023/08/30 01:53:07;;;;;;;7.25;4.57;;;;;;;;;;5042633;28;20148;-59
2023/08/30 01:55:33;;;;;;;7.28;5.18;;;;;;;;;;5032654;28;20085;-58
2023/08/30 01:58:02;;;;;;;7.57;4.55;;;;;;;;;;5036944;28;20064;-56
2023/08/30 02:00:28;;;;;;;8.00;4.75;;;;;;;;;;5041529;28;20053;-58
2023/08/30 02:02:55;;;;;;;9.27;5.03;;;;;;;;;;5045064;28;20593;-58
2023/08/30 02:05:22;;;;;;;6.97;4.38;;;;;;;;;;5042508;28;20061;-58
2023/08/30 02:08:00;;;;;;;6.57;4.90;;;;;;;;;;5042145;28;20049;-59
2023/08/30 02:10:33;;;;;;;7.40;5.50;;;;;;;;;;5042897;28;20053;-59
2023/08/30 02:13:01;;;;;;;5.97;4.68;;;;;;;;;;5044272;28;20053;-59
2023/08/30 02:15:29;;;;;;;8.48;5.07;;;;;;;;;;5044385;28;20195;-56
2023/08/30 02:17:56;;;;;;;12.82;5.43;;;;;;;;;;5045166;28;20053;-56
2023/08/30 02:20:23;;;;;;;6.90;5.22;;;;;;;;;;5042484;28;20504;-56
2023/08/30 02:22:49;;;;;;;7.07;4.63;;;;;;;;;;5041371;28;20050;-56
2023/08/30 02:25:16;;;;;;;10.25;5.40;;;;;;;;;;5041381;28;20058;-58
2023/08/30 02:27:42;;;;;;;7.18;5.35;;;;;;;;;;5035685;28;20088;-57
2023/08/30 02:30:10;;;;;;;8.35;5.95;;;;;;;;;;5037053;28;20152;-58
2023/08/30 02:32:37;;;;;;;8.10;5.60;;;;;;;;;;5037322;28;20188;-57
2023/08/30 02:35:03;;;;;;;8.05;5.72;;;;;;;;;;5042138;28;20525;-57
2023/08/30 02:37:30;;;;;;;8.75;5.80;;;;;;;;;;5038278;28;20494;-58
2023/08/30 02:39:56;;;;;;;7.10;5.38;;;;;;;;;;5039693;28;20085;-56
2023/08/30 02:42:23;;;;;;;8.25;5.75;;;;;;;;;;5044895;28;20045;-57
2023/08/30 02:44:49;;;;;;;9.93;6.20;;;;;;;;;;5041233;28;20063;-57
2023/08/30 02:47:16;;;;;;;11.60;7.00;;;;;;;;;;5048640;28;20176;-57
2023/08/30 02:49:42;;;;;;;11.13;6.68;;;;;;;;;;5041372;28;20057;-58
2023/08/30 02:52:09;;;;;;;8.40;6.38;;;;;;;;;;5037396;28;20105;-55
2023/08/30 02:54:35;;;;;;;10.32;6.57;;;;;;;;;;5030646;28;20053;-57
2023/08/30 02:57:01;;;;;;;9.43;6.25;;;;;;;;;;5042454;28;20491;-58
2023/08/30 02:59:28;;;;;;;11.73;7.07;;;;;;;;;;5036346;28;20056;-58
2023/08/30 03:01:55;;;;;;;9.27;6.28;;;;;;;;;;5038111;28;20163;-58
2023/08/30 03:04:21;;;;;;;8.55;6.00;;;;;;;;;;5031669;28;20062;-58
2023/08/30 03:06:47;;;;;;;9.80;6.93;;;;;;;;;;5041449;28;20141;-57
2023/08/30 03:09:14;;;;;;;9.15;6.55;;;;;;;;;;5041482;28;20618;-58
2023/08/30 03:11:40;;;;;;;11.93;6.72;;;;;;;;;;5041029;28;20061;-55
2023/08/30 03:14:07;;;;;;;13.23;8.07;;;;;;;;;;5042284;28;20535;-58
2023/08/30 03:16:33;;;;;;;9.90;6.25;;;;;;;;;;5046103;28;20099;-57
2023/08/30 03:19:00;;;;;;;11.10;7.78;;;;;;;;;;5045046;28;20058;-58
2023/08/30 03:21:27;;;;;;;9.88;7.00;;;;;;;;;;5044381;28;20189;-56
2023/08/30 03:23:53;;;;;;;13.02;7.80;;;;;;;;;;5044394;28;20063;-57
2023/08/30 03:26:19;;;;;;;9.27;7.38;;;;;;;;;;5050254;28;20151;-59
2023/08/30 03:28:46;;;;;;;9.95;7.25;;;;;;;;;;5044236;28;20069;-59
2023/08/30 03:31:13;;;;;;;12.07;7.80;;;;;;;;;;5045278;28;20075;-56
2023/08/30 03:33:41;;;;;;;9.30;6.80;;;;;;;;;;5032668;28;20830;-58
2023/08/30 03:36:11;;;;;;;11.95;6.80;;;;;;;;;;5035544;28;20053;-58
2023/08/30 03:38:38;;;;;;;10.00;7.68;;;;;;;;;;5043420;28;20061;-56
2023/08/30 03:41:05;;;;;;;11.82;7.05;;;;;;;;;;5044799;28;20541;-58
2023/08/30 03:43:31;;;;;;;9.45;7.07;;;;;;;;;;5044459;28;20057;-59
2023/08/30 03:45:59;;;;;;;13.10;7.95;;;;;;;;;;5044946;28;20054;-58
2023/08/30 03:48:26;;;;;;;11.63;6.88;;;;;;;;;;5044105;28;20057;-58
2023/08/30 03:50:54;;;;;;;13.68;8.20;;;;;;;;;;5041938;28;20088;-57
2023/08/30 03:53:20;;;;;;;12.00;7.75;;;;;;;;;;5044531;28;20530;-58
2023/08/30 03:55:46;;;;;;;12.43;7.43;;;;;;;;;;5043899;28;20542;-58
2023/08/30 03:58:13;;;;;;;10.45;7.30;;;;;;;;;;5043239;28;20144;-56
2023/08/30 04:00:39;;;;;;;9.57;7.30;;;;;;;;;;5037127;28;20056;-58
2023/08/30 04:03:08;;;;;;;9.77;7.30;;;;;;;;;;5044892;28;20482;-59
2023/08/30 04:05:38;;;;;;;11.75;7.55;;;;;;;;;;5042245;28;20053;-53
2023/08/30 04:08:05;;;;;;;12.40;7.75;;;;;;;;;;5045445;28;20136;-56
2023/08/30 04:10:36;;;;;;;10.90;7.90;;;;;;;;;;5044793;28;20145;-59
2023/08/30 04:13:03;;;;;;;9.93;7.47;;;;;;;;;;5049154;28;20060;-55
2023/08/30 04:15:32;;;;;;;9.38;7.38;;;;;;;;;;5045105;28;20053;-55
2023/08/30 04:17:58;;;;;;;10.10;7.10;;;;;;;;;;5038916;28;20131;-59
2023/08/30 04:20:25;;;;;;;9.45;7.93;;;;;;;;;;5044138;28;20147;-58
2023/08/30 04:22:53;;;;;;;13.73;8.70;;;;;;;;;;5043563;28;20053;-54
2023/08/30 04:25:19;;;;;;;9.50;6.88;;;;;;;;;;5041492;28;20250;-53
2023/08/30 04:27:47;;;;;;;13.90;8.00;;;;;;;;;;5037504;28;20153;-58
2023/08/30 04:30:13;;;;;;;10.35;8.10;;;;;;;;;;5041109;28;20057;-58
2023/08/30 04:32:39;;;;;;;11.27;7.35;;;;;;;;;;5036402;28;20081;-60
2023/08/30 04:35:06;;;;;;;11.57;7.53;;;;;;;;;;5043556;28;20068;-58
2023/08/30 04:37:37;;;;;;;11.00;7.50;;;;;;;;;;5043806;28;20064;-58
2023/08/30 04:40:08;;;;;;;10.70;7.68;;;;;;;;;;5050028;28;20608;-58
2023/08/30 04:42:35;;;;;;;10.07;7.70;;;;;;;;;;5042359;28;20050;-55
2023/08/30 04:45:03;;;;;;;19.20;8.43;;;;;;;;;;5031662;28;20140;-58
2023/08/30 04:47:30;;;;;;;13.07;7.68;;;;;;;;;;5044402;28;20061;-58
2023/08/30 04:49:56;;;;;;;10.35;7.78;;;;;;;;;;5043211;28;20054;-56
2023/08/30 04:52:23;;;;;;;10.90;7.68;;;;;;;;;;5042664;28;20136;-58
2023/08/30 04:54:49;;;;;;;12.90;8.00;;;;;;;;;;5040542;28;20132;-58
2023/08/30 04:57:16;;;;;;;13.68;7.93;;;;;;;;;;5040699;28;20170;-56
2023/08/30 04:59:43;;;;;;;10.52;7.72;;;;;;;;;;5042636;28;20090;-56
2023/08/30 05:02:10;;;;;;;9.55;6.72;;;;;;;;;;5031027;28;20503;-56
2023/08/30 05:04:37;;;;;;;11.40;8.10;;;;;;;;;;5041645;28;20161;-58
2023/08/30 05:07:03;;;;;;;11.65;7.20;;;;;;;;;;5040560;28;20053;-57
2023/08/30 05:09:30;;;;;;;10.45;7.15;;;;;;;;;;5052155;28;20052;-58
2023/08/30 05:11:57;;;;;;;9.05;6.93;;;;;;;;;;5049008;28;20145;-58
2023/08/30 05:14:23;;;;;;;12.77;7.10;;;;;;;;;;5035427;28;20049;-57
2023/08/30 05:16:50;;;;;;;11.38;7.20;;;;;;;;;;5041291;28;20093;-58
2023/08/30 05:19:18;;;;;;;14.02;6.90;;;;;;;;;;5038126;28;20530;-56
2023/08/30 05:21:46;;;;;;;10.10;6.75;;;;;;;;;;5034418;28;20054;-57
2023/08/30 05:24:13;;;;;;;9.70;6.75;;;;;;;;;;5040788;28;20131;-58
2023/08/30 05:26:39;;;;;;;10.23;7.80;;;;;;;;;;5038891;28;20571;-59
2023/08/30 05:29:05;;;;;;;13.57;7.85;;;;;;;;;;5041474;28;20163;-56
2023/08/30 05:31:32;;;;;;;10.13;7.30;;;;;;;;;;5042245;28;20057;-58
2023/08/30 05:33:58;;;;;;;10.68;7.55;;;;;;;;;;5043034;28;20058;-58
2023/08/30 05:36:25;;;;;;;11.48;8.10;;;;;;;;;;5039102;28;20067;-58
2023/08/30 05:38:51;;;;;;;15.23;9.57;;;;;;;;;;5029661;28;20081;-58
2023/08/30 05:41:18;;;;;;;10.75;7.80;;;;;;;;;;5033265;28;20172;-60
2023/08/30 05:43:44;;;;;;;13.60;8.70;;;;;;;;;;5038237;28;20081;-60
2023/08/30 05:46:14;;;;;;;11.20;7.47;;;;;;;;;;5045012;28;20055;-60
2023/08/30 05:48:41;;;;;;;8.75;6.30;;;;;;;;;;5039945;28;20053;-59
2023/08/30 05:51:07;;;;;;;12.57;8.20;;;;;;;;;;5041523;28;20111;-59
2023/08/30 05:53:34;;;;;;;10.63;7.55;;;;;;;;;;5040144;28;20498;-58
2023/08/30 05:56:00;;;;;;;13.95;7.35;;;;;;;;;;5044179;28;20111;-59
2023/08/30 05:58:27;;;;;;;12.82;8.00;;;;;;;;;;5041669;28;20562;-59
2023/08/30 06:00:53;;;;;;;9.13;6.97;;;;;;;;;;5049407;28;20052;-59
2023/08/30 06:03:19;;;;;;;11.02;7.72;;;;;;;;;;5053975;28;20087;-59
2023/08/30 06:05:48;;;;;;;10.27;7.38;;;;;;;;;;5050225;28;20058;-60
2023/08/30 06:08:15;;;;;;;11.60;6.82;;;;;;;;;;5036013;28;20054;-59
2023/08/30 06:10:41;;;;;;;10.30;7.68;;;;;;;;;;5042284;28;20619;-59
2023/08/30 06:13:07;;;;;;;11.02;7.70;;;;;;;;;;5042590;28;20085;-59
2023/08/30 06:15:35;;;;;;;13.20;8.63;;;;;;;;;;5046369;28;20140;-59
2023/08/30 06:18:01;;;;;;;10.77;6.88;;;;;;;;;;5041747;28;20058;-58
2023/08/30 06:20:28;;;;;;;10.43;7.30;;;;;;;;;;5039815;28;20641;-60
2023/08/30 06:22:54;;;;;;;10.20;7.57;;;;;;;;;;5040813;28;20520;-60
2023/08/30 06:25:20;;;;;;;11.80;7.38;;;;;;;;;;5041784;28;20530;-58
2023/08/30 06:28:01;;;;;;;11.65;7.88;;;;;;;;;;5044985;28;20504;-60
2023/08/30 06:30:29;;;;;;;12.60;7.53;;;;;;;;;;5040595;28;20059;-61
2023/08/30 06:32:56;;;;;;;11.35;7.32;;;;;;;;;;5037523;28;20064;-60
2023/08/30 06:35:23;;;;;;;11.80;8.35;;;;;;;;;;5034780;28;20053;-60
2023/08/30 06:37:49;;;;;;;11.60;8.18;;;;;;;;;;5050970;28;20081;-60
2023/08/30 06:40:16;;;;;;;12.77;7.80;;;;;;;;;;5040831;28;20067;-58
2023/08/30 06:42:42;;;;;;;11.88;8.13;;;;;;;;;;5042333;28;20127;-60
2023/08/30 06:45:09;;;;;;;12.05;7.90;;;;;;;;;;5041334;28;20049;-60
2023/08/30 06:47:35;;;;;;;13.00;8.10;;;;;;;;;;5031535;28;20556;-60
2023/08/30 06:50:03;;;;;;;12.75;8.38;;;;;;;;;;5032070;28;20061;-61
2023/08/30 06:52:30;;;;;;;13.07;8.45;;;;;;;;;;5040468;28;20049;-60
2023/08/30 06:54:56;;;;;;;13.35;9.27;;;;;;;;;;5041386;28;20054;-58
2023/08/30 06:57:22;;;;;;;14.32;8.10;;;;;;;;;;5042002;28;20140;-60
2023/08/30 06:59:49;;;;;;;13.05;8.88;;;;;;;;;;5036289;28;20586;-61
2023/08/30 07:02:16;;;;;;;13.77;9.30;;;;;;;;;;5043608;28;20049;-62
2023/08/30 07:04:42;;;;;;;16.00;8.50;;;;;;;;;;5041960;28;20068;-60
2023/08/30 07:07:09;;;;;;;12.05;8.48;;;;;;;;;;5041577;28;20512;-60
2023/08/30 07:09:35;;;;;;;12.30;8.20;;;;;;;;;;5037962;28;20132;-59
2023/08/30 07:12:01;;;;;;;12.50;8.82;;;;;;;;;;5041731;28;20045;-65
2023/08/30 07:14:28;;;;;;;15.23;9.38;;;;;;;;;;5040406;28;20057;-61
2023/08/30 07:16:55;;;;;;;11.32;8.70;;;;;;;;;;5053022;28;20174;-61
2023/08/30 07:19:21;;;;;;;16.83;9.20;;;;;;;;;;5043938;28;20071;-61
2023/08/30 07:21:48;;;;;;;16.85;9.63;;;;;;;;;;5041352;28;20057;-60
2023/08/30 07:24:14;;;;;;;13.32;9.30;;;;;;;;;;5040958;28;20136;-60
2023/08/30 07:26:41;;;;;;;17.48;9.85;;;;;;;;;;5041775;28;20583;-61
2023/08/30 07:29:08;;;;;;;12.75;8.88;;;;;;;;;;5040295;28;20609;-59
2023/08/30 07:31:35;;;;;;;12.95;9.25;;;;;;;;;;5040312;28;20557;-60
2023/08/30 07:34:02;;;;;;;15.77;9.27;;;;;;;;;;5047238;28;20933;-59
2023/08/30 07:36:29;;;;;;;15.10;9.68;;;;;;;;;;5036074;28;21808;-57
2023/08/30 07:39:12;;;;;;;12.93;9.25;;;;;;;;;;5027786;28;20482;-61
2023/08/30 07:41:38;;;;;;;13.52;9.07;;;;;;;;;;5034679;28;20500;-58
2023/08/30 07:44:05;;;;;;;14.50;8.80;;;;;;;;;;5028174;28;20057;-60
2023/08/30 07:46:31;;;;;;;13.75;9.00;;;;;;;;;;5038300;28;20049;-60
2023/08/30 07:48:58;;;;;;;12.15;8.63;;;;;;;;;;5042181;28;20049;-60
2023/08/30 07:51:25;;;;;;;12.93;8.68;;;;;;;;;;5049469;28;20652;-58
2023/08/30 07:53:51;;;;;;;13.90;9.10;;;;;;;;;;5032135;28;20054;-59
2023/08/30 07:56:17;;;;;;;14.05;8.50;;;;;;;;;;5026141;28;20054;-60
2023/08/30 07:58:44;;;;;;;12.07;8.27;;;;;;;;;;5032703;28;20111;-59
2023/08/30 08:01:10;;;;;;;11.63;7.97;;;;;;;;;;5026889;28;20054;-60
2023/08/30 08:03:37;;;;;;;13.00;8.80;;;;;;;;;;5036294;28;20053;-60
2023/08/30 08:06:14;;;;;;;12.73;8.45;;;;;;;;;;5036353;28;20547;-59
2023/08/30 08:08:41;;;;;;;11.43;7.63;;;;;;;;;;5044785;28;20053;-59
2023/08/30 08:11:07;;;;;;;10.75;7.93;;;;;;;;;;5050216;28;20534;-58
2023/08/30 08:13:33;;;;;;;13.85;7.07;;;;;;;;;;5031906;28;20053;-57
2023/08/30 08:16:00;;;;;;;11.18;7.45;;;;;;;;;;5032508;28;20449;-59
2023/08/30 08:18:27;;;;;;;14.07;7.07;;;;;;;;;;5033475;28;20287;-59
2023/08/30 08:20:53;;;;;;;12.10;7.50;;;;;;;;;;5041596;28;20457;-61
2023/08/30 08:23:20;;;;;;;10.43;7.35;;;;;;;;;;5042674;28;20874;-60
2023/08/30 08:25:46;;;;;;;9.98;6.28;;;;;;;;;;5042805;28;20053;-59
2023/08/30 08:28:13;;;;;;;9.35;8.02;;;;;;;;;;5040538;28;20073;-57
2023/08/30 08:30:39;;;;;;;10.02;6.78;;;;;;;;;;5042761;28;20112;-60
2023/08/30 08:33:05;;;;;;;9.85;6.10;;;;;;;;;;5041816;28;20128;-60
2023/08/30 08:35:32;;;;;;;9.98;6.47;;;;;;;;;;5036446;28;20496;-60
2023/08/30 08:37:59;;;;;;;7.82;6.00;;;;;;;;;;5031510;28;20068;-59
2023/08/30 08:40:25;;;;;;;10.05;6.60;;;;;;;;;;5031155;28;20144;-60
2023/08/30 08:43:09;;;;;;;8.35;5.88;;;;;;;;;;5036066;28;20057;-59
2023/08/30 08:45:36;;;;;;;7.03;5.70;;;;;;;;;;5039125;28;20061;-60
2023/08/30 08:48:06;;;;;;;7.95;5.60;;;;;;;;;;5026436;28;20472;-61
2023/08/30 08:50:33;;;;;;;8.48;6.07;;;;;;;;;;5035535;28;20069;-60
2023/08/30 08:53:04;;;;;;;9.85;6.05;;;;;;;;;;5038923;28;20177;-60
2023/08/30 08:55:31;;;;;;;10.20;6.25;;;;;;;;;;5039454;28;20065;-59
2023/08/30 08:57:58;;;;;;;6.82;5.18;;;;;;;;;;5041367;28;20068;-60
2023/08/30 09:00:25;;;;;;;7.25;5.65;;;;;;;;;;5038578;28;20229;-60
2023/08/30 09:02:52;;;;;;;9.27;6.30;;;;;;;;;;5041582;28;20579;-60
2023/08/30 09:05:19;;;;;;;19.15;9.90;;;;;;;;;;5041185;28;20107;-60
2023/08/30 09:07:46;;;;;;;6.72;5.25;;;;;;;;;;5029658;28;20512;-59
2023/08/30 09:10:13;;;;;;;7.18;5.93;;;;;;;;;;5037678;28;20057;-60
2023/08/30 09:12:39;;;;;;;8.43;5.88;;;;;;;;;;5038768;28;20620;-60
2023/08/30 09:15:06;;;;;;;8.52;5.85;;;;;;;;;;5030197;28;20507;-60
2023/08/30 09:17:39;;;;;;;8.68;5.90;;;;;;;;;;5038352;28;20049;-59
2023/08/30 09:20:09;;;;;;;7.85;5.63;;;;;;;;;;5037825;28;20057;-57
2023/08/30 09:22:36;;;;;;;9.30;6.53;;;;;;;;;;5038293;28;20057;-56
2023/08/30 09:25:03;;;;;;;7.28;5.38;;;;;;;;;;5025311;28;20195;-60
2023/08/30 09:27:34;;;;;;;8.23;5.53;;;;;;;;;;5031951;28;20958;-60
2023/08/30 09:30:00;;;;;;;7.35;5.10;;;;;;;;;;5046776;28;20530;-60
2023/08/30 09:32:27;;;;;;;10.38;5.53;;;;;;;;;;5041233;28;20511;-59
2023/08/30 09:34:53;;;;;;;7.28;5.10;;;;;;;;;;5042162;28;20049;-58
2023/08/30 09:37:21;;;;;;;8.45;5.80;;;;;;;;;;5043166;28;20543;-59
2023/08/30 09:39:51;;;;;;;8.38;5.25;;;;;;;;;;5042366;28;20057;-60
2023/08/30 09:42:17;;;;;;;8.13;5.72;;;;;;;;;;5043395;28;20053;-59
2023/08/30 09:44:44;;;;;;;8.57;6.22;;;;;;;;;;5041580;28;20143;-60
2023/08/30 09:47:12;;;;;;;7.30;5.63;;;;;;;;;;5035776;28;20089;-58
2023/08/30 09:49:43;;;;;;;7.60;5.75;;;;;;;;;;5049139;28;20077;-60
2023/08/30 09:52:09;;;;;;;8.73;6.40;;;;;;;;;;5034632;28;20050;-61
2023/08/30 09:54:41;;;;;;;8.75;6.75;;;;;;;;;;5035082;28;20064;-60
2023/08/30 09:57:08;;;;;;;9.38;6.95;;;;;;;;;;5037968;28;20167;-58
2023/08/30 09:59:35;;;;;;;10.20;7.53;;;;;;;;;;5042512;28;20523;-60
2023/08/30 10:02:02;;;;;;;9.57;6.78;;;;;;;;;;5043266;28;20129;-60
2023/08/30 10:04:29;;;;;;;11.48;8.13;;;;;;;;;;5036549;28;20056;-59
2023/08/30 10:06:57;;;;;;;9.82;7.20;;;;;;;;;;5038425;28;20053;-57
2023/08/30 10:09:24;;;;;;;11.55;8.75;;;;;;;;;;5025901;28;20053;-59
2023/08/30 10:11:50;;;;;;;10.57;8.20;;;;;;;;;;5042368;28;20096;-60
2023/08/30 10:14:17;;;;;;;11.43;8.82;;;;;;;;;;5040625;28;20116;-60
2023/08/30 10:16:45;;;;;;;12.70;8.23;;;;;;;;;;5040078;28;20061;-60
2023/08/30 10:19:30;;;;;;;12.00;10.32;;;;;;;;;;5042273;28;20144;-57
2023/08/30 10:22:04;;;;;;;10.65;9.55;;;;;;;;;;5039034;28;20479;-59
2023/08/30 10:24:51;;;;;;;11.77;8.90;;;;;;;;;;5034470;28;20054;-59
2023/08/30 10:27:37;;;;;;;11.25;9.07;;;;;;;;;;5040613;28;20648;-58
2023/08/30 10:30:05;;;;;;;9.52;8.57;;;;;;;;;;5040059;28;20092;-58
2023/08/30 10:32:32;;;;;;;14.18;9.63;;;;;;;;;;5036559;28;20057;-60
2023/08/30 10:35:02;;;;;;;10.68;9.57;;;;;;;;;;5042001;28;20511;-59
2023/08/30 10:37:29;;;;;;;11.68;9.80;;;;;;;;;;5033969;28;20057;-59
2023/08/30 10:40:05;;;;;;;11.07;8.73;;;;;;;;;;5040401;28;20056;-59
2023/08/30 10:42:32;;;;;;;8.77;7.88;;;;;;;;;;5042365;28;20442;-60
2023/08/30 10:45:00;;;;;;;10.23;7.90;;;;;;;;;;5040768;28;20560;-60
2023/08/30 10:47:30;;;;;;;9.73;6.57;;;;;;;;;;5035160;28;20570;-58
2023/08/30 10:49:58;;;;;;;5.68;5.18;;;;;;;;;;5041130;28;20142;-58
2023/08/30 10:52:25;;;;;;;7.15;4.53;;;;;;;;;;5042070;28;20618;-61
2023/08/30 10:54:52;;;;;;;7.72;4.22;;;;;;;;;;5042395;28;20401;-59
2023/08/30 10:57:20;;;;;;;5.85;4.15;;;;;;;;;;5041279;28;20061;-60
2023/08/30 11:00:07;;;;;;;8.48;3.53;;;;;;;;;;5040624;28;20520;-59
2023/08/30 11:02:34;;;;;;;5.38;3.20;;;;;;;;;;5043269;28;20776;-59
2023/08/30 11:05:01;;;;;;;8.30;3.20;;;;;;;;;;5041890;28;20088;-59
2023/08/30 11:07:27;;;;;;;4.10;2.72;;;;;;;;;;5041727;28;20127;-60
2023/08/30 11:09:54;;;;;;;2.70;2.20;;;;;;;;;;5040618;28;20571;-60
2023/08/30 11:12:25;;;;;;;4.82;2.65;;;;;;;;;;5042013;28;20095;-60
2023/08/30 11:14:51;;;;;;;9.27;2.55;;;;;;;;;;5034332;28;20583;-60
2023/08/30 11:17:21;;;;;;;7.65;2.75;;;;;;;;;;5040578;28;20526;-58
2023/08/30 11:19:51;;;;;;;6.90;2.63;;;;;;;;;;5044440;28;20107;-59
2023/08/30 11:22:17;;;;;;;7.07;2.78;;;;;;;;;;5042632;28;20504;-60
2023/08/30 11:24:47;;;;;;;4.30;2.20;;;;;;;;;;5036028;28;20053;-59
2023/08/30 11:27:15;;;;;;;6.32;3.00;;;;;;;;;;5032565;28;20045;-59
2023/08/30 11:29:42;;;;;;;7.80;2.20;;;;;;;;;;5040683;28;20057;-60
2023/08/30 11:32:08;;;;;;;3.78;2.17;;;;;;;;;;5037433;28;20045;-58
2023/08/30 11:34:35;;;;;;;6.45;2.78;;;;;;;;;;5044144;28;20057;-57
2023/08/30 11:37:02;;;;;;;7.55;2.50;;;;;;;;;;5034279;28;20069;-60
2023/08/30 11:39:29;;;;;;;6.60;3.08;;;;;;;;;;5042778;28;20050;-59
2023/08/30 11:41:56;;;;;;;9.55;3.28;;;;;;;;;;5032549;28;20579;-59
2023/08/30 11:44:28;;;;;;;8.40;2.70;;;;;;;;;;5032589;28;21059;-58
2023/08/30 11:46:58;;;;;;;6.85;2.70;;;;;;;;;;5040572;28;20042;-58
2023/08/30 11:49:26;;;;;;;11.75;2.70;;;;;;;;;;5033232;28;20056;-59
2023/08/30 11:51:53;;;;;;;8.88;2.67;;;;;;;;;;5032595;28;20049;-59
2023/08/30 11:54:20;;;;;;;7.18;2.92;;;;;;;;;;5034217;28;20057;-59
2023/08/30 11:56:46;;;;;;;12.02;3.20;;;;;;;;;;5033879;28;20132;-59
2023/08/30 11:59:22;;;;;;;7.75;2.92;;;;;;;;;;5040121;28;21102;-61
2023/08/30 12:01:49;;;;;;;4.40;2.55;;;;;;;;;;5041729;28;20067;-61
2023/08/30 12:04:15;;;;;;;8.32;2.55;;;;;;;;;;5044007;28;20061;-60
2023/08/30 12:06:42;;;;;;;9.95;2.88;;;;;;;;;;5040951;28;20054;-59
2023/08/30 12:09:12;;;;;;;9.88;3.08;;;;;;;;;;5047935;28;20053;-61
2023/08/30 12:11:38;;;;;;;7.60;2.30;;;;;;;;;;5046384;28;20558;-60
2023/08/30 12:14:05;;;;;;;7.40;2.08;;;;;;;;;;5050951;28;20603;-59
2023/08/30 12:16:31;;;;;;;7.82;1.95;;;;;;;;;;5048195;28;20172;-59
2023/08/30 12:19:06;;;;;;;4.75;1.92;;;;;;;;;;5045578;28;20531;-59
2023/08/30 12:21:33;;;;;;;;;;;;;;;;;;5040896;28;20520;-59
2023/08/30 12:24:00;;;;;;;7.30;1.95;;;;;;;;;;5042814;28;46636;-58
2023/08/30 12:26:32;;;;;;;5.43;1.60;;;;;;;;;;5041039;28;20144;-59
2023/08/30 12:28:58;;;;;;;7.97;2.20;;;;;;;;;;5075599;28;20059;-60
2023/08/30 12:31:27;;;;;;;6.05;1.75;;;;;;;;;;5031577;28;20120;-58
2023/08/30 12:33:54;;;;;;;7.57;2.35;;;;;;;;;;5040496;28;20064;-58
2023/08/30 12:36:20;;;;;;;8.90;1.75;;;;;;;;;;5051536;28;20115;-60
2023/08/30 12:38:46;;;;;;;6.10;2.42;;;;;;;;;;5040995;28;20053;-60
2023/08/30 12:41:13;;;;;;;7.40;2.40;;;;;;;;;;5036342;28;20143;-60
2023/08/30 12:43:39;;;;;;;8.15;2.05;;;;;;;;;;5035674;28;20049;-60
2023/08/30 12:46:07;;;;;;;8.65;2.13;;;;;;;;;;5037800;28;20430;-56
2023/08/30 12:48:33;;;;;;;5.50;1.85;;;;;;;;;;5038892;28;20566;-59
2023/08/30 12:51:00;;;;;;;3.83;1.83;;;;;;;;;;5043870;28;20054;-61
2023/08/30 12:53:26;;;;;;;6.85;2.00;;;;;;;;;;5043006;28;20061;-59
2023/08/30 12:55:53;;;;;;;4.25;1.63;;;;;;;;;;5039199;28;20096;-59
2023/08/30 12:58:19;;;;;;;7.45;2.15;;;;;;;;;;5037674;28;20056;-60
2023/08/30 13:00:47;;;;;;;6.10;2.10;;;;;;;;;;5036791;28;20082;-60
2023/08/30 13:03:14;;;;;;;8.20;1.58;;;;;;;;;;5053021;28;20060;-59
2023/08/30 13:05:41;;;;;;;5.47;2.22;;;;;;;;;;5046057;28;20057;-60
2023/08/30 13:08:07;;;;;;;6.95;1.92;;;;;;;;;;5047509;28;20108;-59
2023/08/30 13:10:34;;;;;;;6.97;1.73;;;;;;;;;;5043697;28;20057;-59
2023/08/30 13:13:01;;;;;;;7.00;2.22;;;;;;;;;;5042355;28;20057;-59
2023/08/30 13:15:27;;;;;;;7.68;1.77;;;;;;;;;;5041187;28;20058;-58
2023/08/30 13:17:54;;;;;;;10.23;2.58;;;;;;;;;;5048234;28;20049;-59
2023/08/30 13:20:20;;;;;;;5.30;1.80;;;;;;;;;;5055119;28;20053;-56
2023/08/30 13:22:47;;;;;;;6.38;1.80;;;;;;;;;;5042232;28;20057;-58
2023/08/30 13:25:13;;;;;;;4.75;1.95;;;;;;;;;;5043500;28;20049;-57
2023/08/30 13:27:40;;;;;;;5.07;1.88;;;;;;;;;;5041455;28;20136;-56
2023/08/30 13:30:07;;;;;;;6.60;1.85;;;;;;;;;;5046273;28;20056;-57
2023/08/30 13:32:33;;;;;;;6.95;2.38;;;;;;;;;;5042732;28;20587;-56
2023/08/30 13:35:00;;;;;;;6.55;2.00;;;;;;;;;;5043895;28;20140;-57
2023/08/30 13:37:26;;;;;;;4.68;1.88;;;;;;;;;;5043499;28;20068;-55
2023/08/30 13:39:53;;;;;;;3.28;1.50;;;;;;;;;;5043889;28;20088;-56
2023/08/30 13:42:21;;;;;;;6.63;2.30;;;;;;;;;;5044096;28;20064;-56
2023/08/30 13:44:50;;;;;;;4.38;2.03;;;;;;;;;;5043545;28;20053;-56
2023/08/30 13:47:16;;;;;;;3.28;1.48;;;;;;;;;;5043434;28;20428;-56
2023/08/30 13:49:42;;;;;;;4.22;1.55;;;;;;;;;;5034442;28;20520;-57
2023/08/30 13:52:09;;;;;;;8.15;2.20;;;;;;;;;;5036051;28;20053;-58
2023/08/30 13:54:35;;;;;;;7.93;1.75;;;;;;;;;;5042760;28;20053;-57
2023/08/30 13:57:02;;;;;;;8.80;1.90;;;;;;;;;;5050550;28;20530;-57
2023/08/30 13:59:28;;;;;;;6.60;1.70;;;;;;;;;;5042430;28;20045;-57
2023/08/30 14:01:57;;;;;;;3.28;1.20;;;;;;;;;;5042492;28;20196;-58
2023/08/30 14:04:25;;;;;;;6.38;1.70;;;;;;;;;;5039864;28;20056;-58
2023/08/30 14:06:52;;;;;;;11.05;1.52;;;;;;;;;;5022925;28;20571;-58
2023/08/30 14:09:18;;;;;;;5.47;1.75;;;;;;;;;;5060269;28;20088;-60
2023/08/30 14:11:44;;;;;;;4.97;1.30;;;;;;;;;;5030736;28;20588;-58
2023/08/30 14:14:11;;;;;;;3.50;1.13;;;;;;;;;;5039979;28;20140;-56
2023/08/30 14:16:38;;;;;;;5.35;1.30;;;;;;;;;;5048262;28;20112;-57
2023/08/30 14:19:05;;;;;;;4.90;1.35;;;;;;;;;;5043209;28;20054;-55
2023/08/30 14:21:32;;;;;;;5.38;1.40;;;;;;;;;;5042178;28;20073;-58
2023/08/30 14:23:59;;;;;;;3.60;1.20;;;;;;;;;;5042289;28;20041;-58
2023/08/30 14:26:25;;;;;;;4.53;1.27;;;;;;;;;;5042538;28;20103;-56
2023/08/30 14:28:52;;;;;;;3.72;1.35;;;;;;;;;;5041925;28;20053;-58
2023/08/30 14:31:18;;;;;;;3.88;1.48;;;;;;;;;;5043647;28;20055;-58
2023/08/30 14:33:45;;;;;;;5.20;1.50;;;;;;;;;;5043132;28;20115;-58
2023/08/30 14:36:12;;;;;;;5.10;1.30;;;;;;;;;;5039335;28;20064;-58
2023/08/30 14:38:38;;;;;;;4.68;1.65;;;;;;;;;;5038522;28;20057;-61